Camp Douglas, WI

12:10 CDT le 24 mai 2015 (GMT -0500)
Black River Falls Area | | Change Station
CLOSE
Current Station
Aéroport
Location: Black River Falls,
Altitude: 837 ft
Stations météo à proximité

Alt. 837 ft 44.25 °N, 90.86 °W | Updated 15 minutes ago

Pluie
Pluie
60 ° F
Paraît 60 ° F
N
4
Vent Variable Vent de ESE

Aujourd'hui
Haut(e) -- | Bas -- ° F
--% Risque de précip.
Hier
Haut(e) -- | Bas -- ° F
Precip. -- pouce
5:26 AM 8:29 PM
Lune montante, 40% visible
Pression 30.09 pouce
Visibilité 10.0 Miles terrestres
Nuages Nuageux 3900 ft
Couvert 4700 ft
Point de rosée 59 ° F
Humidité 95%
Précipitations 0.06 pouce
Profondeur de la couche neigeuse Non disponible.
UV 3 sur 12
Pollen 6.90 sur 12
Qualité de l'air Non disponible.
Flu Activity Sporadic
METAR KBCK 241655Z AUTO 12003KT 10SM -RA BKN039 OVC047 16/15 A3009 RMK AO2 P0003 T01560148

More Conditions Fewer Conditions

Pression 30.09 pouce
Visibilité 10.0 Miles terrestres
Nuages Nuageux 3900 ft
Couvert 4700 ft
Point de rosée 59 ° F
Humidité 95%
Précipitations 0.06 pouce
Profondeur de la couche neigeuse Non disponible.
UV 3 sur 12
Pollen 6.90 sur 12
Qualité de l'air Non disponible.
Flu Activity Sporadic
METAR KBCK 241655Z AUTO 12003KT 10SM -RA BKN039 OVC047 16/15 A3009 RMK AO2 P0003 T01560148

More Conditions Fewer Conditions

10-Day Weather Forecast

Almanac

Astronomie

May. 24, 2015 Lever Coucher
Temps réel
Crépuscule civil
Crépuscule nautique
Crépuscule astronomique
Lune
Durée de lumière visible
Longueur du jour
Tomorrow will be .
, % of the Moon is Illuminated

Extrêmes aujourd'hui

State Highs State Lows

Community

WunderPhotos

Upload Photos

1,823,799 Photos téléchargées !

WunderBlogs® & News

Nearby

Qualité de l'air

  Qualité de l'air Indice de la qualité de l'air Polluant
Not available.

Épaisseur de neige

Station Depth Altitude

Activité sismique

Ville Distance Mag. Time & Date
Minimum magnitude displayed is 2.5.

Températures des eaux côtières

Lieu Température

Stations

Stations météo à proximité

Emplacement de la station Température Refroidissement éolien Point de rosée Humidité Vent Precip. Alt. Mise à jour Type